sensor_id;sensor_type;location;lat;lon;timestamp;temperature;humidity
32522;DHT22;18963;51.504;5.316;2024-03-08T00:01:35;3.30;99.90
32522;DHT22;18963;51.504;5.316;2024-03-08T00:04:01;3.30;99.90
32522;DHT22;18963;51.504;5.316;2024-03-08T00:06:26;3.20;99.90
32522;DHT22;18963;51.504;5.316;2024-03-08T00:08:52;3.20;99.90
32522;DHT22;18963;51.504;5.316;2024-03-08T00:11:17;3.20;99.90
32522;DHT22;18963;51.504;5.316;2024-03-08T00:13:43;3.20;99.90
32522;DHT22;18963;51.504;5.316;2024-03-08T00:16:10;3.10;99.90
32522;DHT22;18963;51.504;5.316;2024-03-08T00:18:35;3.10;99.90
32522;DHT22;18963;51.504;5.316;2024-03-08T00:21:01;3.00;99.90
32522;DHT22;18963;51.504;5.316;2024-03-08T00:23:26;3.00;99.90
32522;DHT22;18963;51.504;5.316;2024-03-08T00:25:53;3.00;99.90
32522;DHT22;18963;51.504;5.316;2024-03-08T00:28:20;3.00;99.90
32522;DHT22;18963;51.504;5.316;2024-03-08T00:30:45;2.90;99.90
32522;DHT22;18963;51.504;5.316;2024-03-08T00:33:11;2.90;99.90
32522;DHT22;18963;51.504;5.316;2024-03-08T00:35:37;2.90;99.90
32522;DHT22;18963;51.504;5.316;2024-03-08T00:38:02;2.90;99.90
32522;DHT22;18963;51.504;5.316;2024-03-08T00:40:28;2.90;99.90
32522;DHT22;18963;51.504;5.316;2024-03-08T00:42:54;2.90;99.90
32522;DHT22;18963;51.504;5.316;2024-03-08T00:45:19;2.80;99.90
32522;DHT22;18963;51.504;5.316;2024-03-08T00:47:45;2.80;99.90
32522;DHT22;18963;51.504;5.316;2024-03-08T00:50:10;2.70;99.90
32522;DHT22;18963;51.504;5.316;2024-03-08T00:52:36;2.70;99.90
32522;DHT22;18963;51.504;5.316;2024-03-08T00:55:02;2.70;99.90
32522;DHT22;18963;51.504;5.316;2024-03-08T00:57:27;2.70;99.90
32522;DHT22;18963;51.504;5.316;2024-03-08T00:59:53;2.70;99.90
32522;DHT22;18963;51.504;5.316;2024-03-08T01:02:19;2.70;99.90
32522;DHT22;18963;51.504;5.316;2024-03-08T01:04:45;2.70;99.90
32522;DHT22;18963;51.504;5.316;2024-03-08T01:07:12;2.60;99.90
32522;DHT22;18963;51.504;5.316;2024-03-08T01:09:37;2.60;99.90
32522;DHT22;18963;51.504;5.316;2024-03-08T01:12:03;2.60;99.90
32522;DHT22;18963;51.504;5.316;2024-03-08T01:14:28;2.50;99.90
32522;DHT22;18963;51.504;5.316;2024-03-08T01:16:55;2.50;99.90
32522;DHT22;18963;51.504;5.316;2024-03-08T01:19:20;2.50;99.90
32522;DHT22;18963;51.504;5.316;2024-03-08T01:21:46;2.50;99.90
32522;DHT22;18963;51.504;5.316;2024-03-08T01:24:11;2.40;99.90
32522;DHT22;18963;51.504;5.316;2024-03-08T01:26:37;2.40;99.90
32522;DHT22;18963;51.504;5.316;2024-03-08T01:29:03;2.40;99.90
32522;DHT22;18963;51.504;5.316;2024-03-08T01:31:29;2.40;99.90
32522;DHT22;18963;51.504;5.316;2024-03-08T01:33:55;2.40;99.90
32522;DHT22;18963;51.504;5.316;2024-03-08T01:36:21;2.40;99.90
32522;DHT22;18963;51.504;5.316;2024-03-08T01:38:46;2.30;99.90
32522;DHT22;18963;51.504;5.316;2024-03-08T01:41:12;2.30;99.90
32522;DHT22;18963;51.504;5.316;2024-03-08T01:43:38;2.30;99.90
32522;DHT22;18963;51.504;5.316;2024-03-08T01:46:04;2.30;99.90
32522;DHT22;18963;51.504;5.316;2024-03-08T01:48:30;2.20;99.90
32522;DHT22;18963;51.504;5.316;2024-03-08T01:50:56;2.20;99.90
32522;DHT22;18963;51.504;5.316;2024-03-08T01:53:23;2.30;99.90
32522;DHT22;18963;51.504;5.316;2024-03-08T01:55:49;2.20;99.90
32522;DHT22;18963;51.504;5.316;2024-03-08T01:58:15;2.20;99.90
32522;DHT22;18963;51.504;5.316;2024-03-08T02:00:44;2.20;99.90
32522;DHT22;18963;51.504;5.316;2024-03-08T02:03:11;2.20;99.90
32522;DHT22;18963;51.504;5.316;2024-03-08T02:05:37;2.10;99.90
32522;DHT22;18963;51.504;5.316;2024-03-08T02:08:03;2.10;99.90
32522;DHT22;18963;51.504;5.316;2024-03-08T02:10:31;2.10;99.90
32522;DHT22;18963;51.504;5.316;2024-03-08T02:12:57;2.00;99.90
32522;DHT22;18963;51.504;5.316;2024-03-08T02:15:23;2.00;99.90
32522;DHT22;18963;51.504;5.316;2024-03-08T02:17:49;2.00;99.90
32522;DHT22;18963;51.504;5.316;2024-03-08T02:20:14;2.00;99.90
32522;DHT22;18963;51.504;5.316;2024-03-08T02:22:40;2.00;99.90
32522;DHT22;18963;51.504;5.316;2024-03-08T02:25:05;2.00;99.90
32522;DHT22;18963;51.504;5.316;2024-03-08T02:27:31;2.00;99.90
32522;DHT22;18963;51.504;5.316;2024-03-08T02:29:58;1.90;99.90
32522;DHT22;18963;51.504;5.316;2024-03-08T02:32:24;1.90;99.90
32522;DHT22;18963;51.504;5.316;2024-03-08T02:34:49;1.90;99.90
32522;DHT22;18963;51.504;5.316;2024-03-08T02:37:15;1.80;99.90
32522;DHT22;18963;51.504;5.316;2024-03-08T02:39:41;1.90;99.90
32522;DHT22;18963;51.504;5.316;2024-03-08T02:42:06;1.80;99.90
32522;DHT22;18963;51.504;5.316;2024-03-08T02:44:32;1.90;99.90
32522;DHT22;18963;51.504;5.316;2024-03-08T02:46:59;1.90;99.90
32522;DHT22;18963;51.504;5.316;2024-03-08T02:49:25;1.80;99.90
32522;DHT22;18963;51.504;5.316;2024-03-08T02:51:54;1.80;99.90
32522;DHT22;18963;51.504;5.316;2024-03-08T02:54:22;1.80;99.90
32522;DHT22;18963;51.504;5.316;2024-03-08T02:56:47;1.80;99.90
32522;DHT22;18963;51.504;5.316;2024-03-08T02:59:15;1.80;99.90
32522;DHT22;18963;51.504;5.316;2024-03-08T03:01:43;1.80;99.90
32522;DHT22;18963;51.504;5.316;2024-03-08T03:04:08;1.70;99.90
32522;DHT22;18963;51.504;5.316;2024-03-08T03:06:34;1.70;99.90
32522;DHT22;18963;51.504;5.316;2024-03-08T03:08:59;1.60;99.90
32522;DHT22;18963;51.504;5.316;2024-03-08T03:11:25;1.60;99.90
32522;DHT22;18963;51.504;5.316;2024-03-08T03:13:50;1.60;99.90
32522;DHT22;18963;51.504;5.316;2024-03-08T03:16:19;1.50;99.90
32522;DHT22;18963;51.504;5.316;2024-03-08T03:18:45;1.60;99.90
32522;DHT22;18963;51.504;5.316;2024-03-08T03:21:11;1.50;99.90
32522;DHT22;18963;51.504;5.316;2024-03-08T03:23:38;1.50;99.90
32522;DHT22;18963;51.504;5.316;2024-03-08T03:26:05;1.50;99.90
32522;DHT22;18963;51.504;5.316;2024-03-08T03:28:32;1.50;99.90
32522;DHT22;18963;51.504;5.316;2024-03-08T03:30:58;1.50;99.90
32522;DHT22;18963;51.504;5.316;2024-03-08T03:33:24;1.50;99.90
32522;DHT22;18963;51.504;5.316;2024-03-08T03:35:50;1.50;99.90
32522;DHT22;18963;51.504;5.316;2024-03-08T03:38:17;1.50;99.90
32522;DHT22;18963;51.504;5.316;2024-03-08T03:40:42;1.40;99.90
32522;DHT22;18963;51.504;5.316;2024-03-08T03:43:10;1.40;99.90
32522;DHT22;18963;51.504;5.316;2024-03-08T03:45:36;1.40;99.90
32522;DHT22;18963;51.504;5.316;2024-03-08T03:48:02;1.40;99.90
32522;DHT22;18963;51.504;5.316;2024-03-08T03:50:28;1.40;99.90
32522;DHT22;18963;51.504;5.316;2024-03-08T03:52:53;1.40;99.90
32522;DHT22;18963;51.504;5.316;2024-03-08T03:55:19;1.40;99.90
32522;DHT22;18963;51.504;5.316;2024-03-08T03:57:45;1.30;99.90
32522;DHT22;18963;51.504;5.316;2024-03-08T04:00:11;1.30;99.90
32522;DHT22;18963;51.504;5.316;2024-03-08T04:02:37;1.30;99.90
32522;DHT22;18963;51.504;5.316;2024-03-08T04:05:04;1.30;99.90
32522;DHT22;18963;51.504;5.316;2024-03-08T04:07:29;1.30;99.90
32522;DHT22;18963;51.504;5.316;2024-03-08T04:09:55;1.20;99.90
32522;DHT22;18963;51.504;5.316;2024-03-08T04:12:20;1.20;99.90
32522;DHT22;18963;51.504;5.316;2024-03-08T04:14:46;1.30;99.90
32522;DHT22;18963;51.504;5.316;2024-03-08T04:17:11;1.30;99.90
32522;DHT22;18963;51.504;5.316;2024-03-08T04:19:37;1.30;99.90
32522;DHT22;18963;51.504;5.316;2024-03-08T04:22:03;1.30;99.90
32522;DHT22;18963;51.504;5.316;2024-03-08T04:24:28;1.30;99.90
32522;DHT22;18963;51.504;5.316;2024-03-08T04:26:56;1.30;99.90
32522;DHT22;18963;51.504;5.316;2024-03-08T04:29:22;1.30;99.90
32522;DHT22;18963;51.504;5.316;2024-03-08T04:31:47;1.30;99.90
32522;DHT22;18963;51.504;5.316;2024-03-08T04:34:12;1.30;99.90
32522;DHT22;18963;51.504;5.316;2024-03-08T04:36:38;1.30;99.90
32522;DHT22;18963;51.504;5.316;2024-03-08T04:39:03;1.30;99.90
32522;DHT22;18963;51.504;5.316;2024-03-08T04:41:30;1.30;99.90
32522;DHT22;18963;51.504;5.316;2024-03-08T04:43:56;1.30;99.90
32522;DHT22;18963;51.504;5.316;2024-03-08T04:46:23;1.30;99.90
32522;DHT22;18963;51.504;5.316;2024-03-08T04:48:48;1.30;99.90
32522;DHT22;18963;51.504;5.316;2024-03-08T04:51:14;1.30;99.90
32522;DHT22;18963;51.504;5.316;2024-03-08T04:53:41;1.30;99.90
32522;DHT22;18963;51.504;5.316;2024-03-08T04:56:06;1.30;99.90
32522;DHT22;18963;51.504;5.316;2024-03-08T04:58:33;1.20;99.90
32522;DHT22;18963;51.504;5.316;2024-03-08T05:01:00;1.30;99.90
32522;DHT22;18963;51.504;5.316;2024-03-08T05:03:26;1.20;99.90
32522;DHT22;18963;51.504;5.316;2024-03-08T05:05:52;1.20;99.90
32522;DHT22;18963;51.504;5.316;2024-03-08T05:08:18;1.10;99.90
32522;DHT22;18963;51.504;5.316;2024-03-08T05:10:44;1.20;99.90
32522;DHT22;18963;51.504;5.316;2024-03-08T05:13:09;1.20;99.90
32522;DHT22;18963;51.504;5.316;2024-03-08T05:15:35;1.20;99.90
32522;DHT22;18963;51.504;5.316;2024-03-08T05:18:01;1.10;99.90
32522;DHT22;18963;51.504;5.316;2024-03-08T05:20:27;1.10;99.90
32522;DHT22;18963;51.504;5.316;2024-03-08T05:22:53;1.10;99.90
32522;DHT22;18963;51.504;5.316;2024-03-08T05:25:18;1.10;99.90
32522;DHT22;18963;51.504;5.316;2024-03-08T05:27:44;1.10;99.90
32522;DHT22;18963;51.504;5.316;2024-03-08T05:30:09;1.00;99.90
32522;DHT22;18963;51.504;5.316;2024-03-08T05:32:43;1.00;99.90
32522;DHT22;18963;51.504;5.316;2024-03-08T05:35:12;1.00;99.90
32522;DHT22;18963;51.504;5.316;2024-03-08T05:37:38;1.00;99.90
32522;DHT22;18963;51.504;5.316;2024-03-08T05:40:05;1.00;99.90
32522;DHT22;18963;51.504;5.316;2024-03-08T05:42:34;1.00;99.90
32522;DHT22;18963;51.504;5.316;2024-03-08T05:45:00;1.00;99.90
32522;DHT22;18963;51.504;5.316;2024-03-08T05:47:25;1.00;99.90
32522;DHT22;18963;51.504;5.316;2024-03-08T05:49:51;1.00;99.90
32522;DHT22;18963;51.504;5.316;2024-03-08T05:52:18;1.10;99.90
32522;DHT22;18963;51.504;5.316;2024-03-08T05:54:44;1.10;99.90
32522;DHT22;18963;51.504;5.316;2024-03-08T05:57:11;1.10;99.90
32522;DHT22;18963;51.504;5.316;2024-03-08T05:59:36;1.10;99.90
32522;DHT22;18963;51.504;5.316;2024-03-08T06:02:02;1.10;99.90
32522;DHT22;18963;51.504;5.316;2024-03-08T06:04:28;1.10;99.90
32522;DHT22;18963;51.504;5.316;2024-03-08T06:06:54;1.10;99.90
32522;DHT22;18963;51.504;5.316;2024-03-08T06:09:22;1.00;99.90
32522;DHT22;18963;51.504;5.316;2024-03-08T06:11:48;1.00;99.90
32522;DHT22;18963;51.504;5.316;2024-03-08T06:14:14;1.00;99.90
32522;DHT22;18963;51.504;5.316;2024-03-08T06:16:46;1.00;99.90
32522;DHT22;18963;51.504;5.316;2024-03-08T06:19:12;0.90;99.90
32522;DHT22;18963;51.504;5.316;2024-03-08T06:21:38;0.90;99.90
32522;DHT22;18963;51.504;5.316;2024-03-08T06:24:04;0.90;99.90
32522;DHT22;18963;51.504;5.316;2024-03-08T06:26:29;0.90;99.90
32522;DHT22;18963;51.504;5.316;2024-03-08T06:28:55;1.00;99.90
32522;DHT22;18963;51.504;5.316;2024-03-08T06:31:20;1.00;99.90
32522;DHT22;18963;51.504;5.316;2024-03-08T06:33:46;1.00;99.90
32522;DHT22;18963;51.504;5.316;2024-03-08T06:36:11;0.90;99.90
32522;DHT22;18963;51.504;5.316;2024-03-08T06:38:40;1.00;99.90
32522;DHT22;18963;51.504;5.316;2024-03-08T06:41:10;1.00;99.90
32522;DHT22;18963;51.504;5.316;2024-03-08T06:43:44;1.10;99.90
32522;DHT22;18963;51.504;5.316;2024-03-08T06:46:10;1.10;99.90
32522;DHT22;18963;51.504;5.316;2024-03-08T06:48:40;1.10;99.90
32522;DHT22;18963;51.504;5.316;2024-03-08T06:51:06;1.20;99.90
32522;DHT22;18963;51.504;5.316;2024-03-08T06:53:32;1.30;99.90
32522;DHT22;18963;51.504;5.316;2024-03-08T06:55:57;1.40;99.90
32522;DHT22;18963;51.504;5.316;2024-03-08T06:58:23;1.50;99.90
32522;DHT22;18963;51.504;5.316;2024-03-08T07:00:49;1.60;99.90
32522;DHT22;18963;51.504;5.316;2024-03-08T07:03:17;1.70;99.90
32522;DHT22;18963;51.504;5.316;2024-03-08T07:05:43;1.80;99.90
32522;DHT22;18963;51.504;5.316;2024-03-08T07:08:08;1.90;99.90
32522;DHT22;18963;51.504;5.316;2024-03-08T07:10:34;2.00;99.90
32522;DHT22;18963;51.504;5.316;2024-03-08T07:13:00;2.10;99.90
32522;DHT22;18963;51.504;5.316;2024-03-08T07:15:27;2.20;99.90
32522;DHT22;18963;51.504;5.316;2024-03-08T07:17:54;2.30;99.90
32522;DHT22;18963;51.504;5.316;2024-03-08T07:20:19;2.30;99.90
32522;DHT22;18963;51.504;5.316;2024-03-08T07:22:45;2.50;99.90
32522;DHT22;18963;51.504;5.316;2024-03-08T07:25:16;2.60;99.90
32522;DHT22;18963;51.504;5.316;2024-03-08T07:27:48;2.70;99.90
32522;DHT22;18963;51.504;5.316;2024-03-08T07:30:13;2.80;99.90
32522;DHT22;18963;51.504;5.316;2024-03-08T07:32:59;2.90;99.90
32522;DHT22;18963;51.504;5.316;2024-03-08T07:35:24;3.00;99.90
32522;DHT22;18963;51.504;5.316;2024-03-08T07:37:52;3.10;99.90
32522;DHT22;18963;51.504;5.316;2024-03-08T07:40:20;3.20;99.90
32522;DHT22;18963;51.504;5.316;2024-03-08T07:42:46;3.30;99.90
32522;DHT22;18963;51.504;5.316;2024-03-08T07:45:11;3.50;99.90
32522;DHT22;18963;51.504;5.316;2024-03-08T07:47:38;3.60;99.90
32522;DHT22;18963;51.504;5.316;2024-03-08T07:50:03;3.70;99.90
32522;DHT22;18963;51.504;5.316;2024-03-08T07:52:29;3.80;99.90
32522;DHT22;18963;51.504;5.316;2024-03-08T07:54:54;4.00;99.90
32522;DHT22;18963;51.504;5.316;2024-03-08T07:57:20;4.10;99.90
32522;DHT22;18963;51.504;5.316;2024-03-08T07:59:46;4.20;99.90
32522;DHT22;18963;51.504;5.316;2024-03-08T08:02:11;4.40;99.90
32522;DHT22;18963;51.504;5.316;2024-03-08T08:04:37;4.50;99.90
32522;DHT22;18963;51.504;5.316;2024-03-08T08:07:04;4.50;99.90
32522;DHT22;18963;51.504;5.316;2024-03-08T08:09:29;4.60;99.90
32522;DHT22;18963;51.504;5.316;2024-03-08T08:12:00;4.70;99.90
32522;DHT22;18963;51.504;5.316;2024-03-08T08:14:27;4.90;99.90
32522;DHT22;18963;51.504;5.316;2024-03-08T08:16:52;4.90;99.90
32522;DHT22;18963;51.504;5.316;2024-03-08T08:19:18;5.10;99.90
32522;DHT22;18963;51.504;5.316;2024-03-08T08:21:44;5.20;99.90
32522;DHT22;18963;51.504;5.316;2024-03-08T08:24:09;5.40;99.90
32522;DHT22;18963;51.504;5.316;2024-03-08T08:26:36;5.50;99.90
32522;DHT22;18963;51.504;5.316;2024-03-08T08:29:01;5.60;99.90
32522;DHT22;18963;51.504;5.316;2024-03-08T08:31:27;5.70;99.90
32522;DHT22;18963;51.504;5.316;2024-03-08T08:33:53;5.80;99.90
32522;DHT22;18963;51.504;5.316;2024-03-08T08:36:24;5.90;99.90
32522;DHT22;18963;51.504;5.316;2024-03-08T08:38:49;5.90;99.90
32522;DHT22;18963;51.504;5.316;2024-03-08T08:41:15;5.90;99.90
32522;DHT22;18963;51.504;5.316;2024-03-08T08:43:42;6.00;99.90
32522;DHT22;18963;51.504;5.316;2024-03-08T08:46:12;6.00;99.90
32522;DHT22;18963;51.504;5.316;2024-03-08T08:48:39;6.10;99.90
32522;DHT22;18963;51.504;5.316;2024-03-08T08:51:09;6.30;99.90
32522;DHT22;18963;51.504;5.316;2024-03-08T08:53:38;6.40;99.90
32522;DHT22;18963;51.504;5.316;2024-03-08T08:56:03;6.50;99.90
32522;DHT22;18963;51.504;5.316;2024-03-08T08:58:29;6.60;99.90
32522;DHT22;18963;51.504;5.316;2024-03-08T09:00:54;6.70;99.90
32522;DHT22;18963;51.504;5.316;2024-03-08T09:03:20;6.80;99.90
32522;DHT22;18963;51.504;5.316;2024-03-08T09:05:45;7.00;99.90
32522;DHT22;18963;51.504;5.316;2024-03-08T09:08:11;7.10;99.90
32522;DHT22;18963;51.504;5.316;2024-03-08T09:10:38;7.20;99.90
32522;DHT22;18963;51.504;5.316;2024-03-08T09:13:04;7.40;99.90
32522;DHT22;18963;51.504;5.316;2024-03-08T09:15:29;7.40;99.90
32522;DHT22;18963;51.504;5.316;2024-03-08T09:17:55;7.50;99.90
32522;DHT22;18963;51.504;5.316;2024-03-08T09:20:20;7.60;99.90
32522;DHT22;18963;51.504;5.316;2024-03-08T09:22:46;7.60;99.90
32522;DHT22;18963;51.504;5.316;2024-03-08T09:25:11;7.60;99.90
32522;DHT22;18963;51.504;5.316;2024-03-08T09:27:37;7.60;99.90
32522;DHT22;18963;51.504;5.316;2024-03-08T09:30:03;7.60;99.90
32522;DHT22;18963;51.504;5.316;2024-03-08T09:32:29;7.80;99.90
32522;DHT22;18963;51.504;5.316;2024-03-08T09:34:55;7.90;99.90
32522;DHT22;18963;51.504;5.316;2024-03-08T09:37:21;8.00;99.90
32522;DHT22;18963;51.504;5.316;2024-03-08T09:39:46;8.10;99.90
32522;DHT22;18963;51.504;5.316;2024-03-08T09:42:12;8.10;99.90
32522;DHT22;18963;51.504;5.316;2024-03-08T09:44:44;8.10;99.90
32522;DHT22;18963;51.504;5.316;2024-03-08T09:47:09;8.10;99.90
32522;DHT22;18963;51.504;5.316;2024-03-08T09:49:39;8.10;99.90
32522;DHT22;18963;51.504;5.316;2024-03-08T09:52:06;8.20;99.90
32522;DHT22;18963;51.504;5.316;2024-03-08T09:54:32;8.30;99.90
32522;DHT22;18963;51.504;5.316;2024-03-08T09:56:58;8.40;99.90
32522;DHT22;18963;51.504;5.316;2024-03-08T09:59:23;8.50;99.90
32522;DHT22;18963;51.504;5.316;2024-03-08T10:01:52;8.50;99.90
32522;DHT22;18963;51.504;5.316;2024-03-08T10:04:17;8.60;99.90
32522;DHT22;18963;51.504;5.316;2024-03-08T10:06:43;8.70;99.90
32522;DHT22;18963;51.504;5.316;2024-03-08T10:09:09;8.80;99.90
32522;DHT22;18963;51.504;5.316;2024-03-08T10:11:35;8.80;99.90
32522;DHT22;18963;51.504;5.316;2024-03-08T10:14:01;8.90;99.90
32522;DHT22;18963;51.504;5.316;2024-03-08T10:16:30;9.10;99.90
32522;DHT22;18963;51.504;5.316;2024-03-08T10:18:58;9.20;99.90
32522;DHT22;18963;51.504;5.316;2024-03-08T10:21:25;9.50;99.90
32522;DHT22;18963;51.504;5.316;2024-03-08T10:23:51;9.50;99.90
32522;DHT22;18963;51.504;5.316;2024-03-08T10:26:17;9.40;99.90
32522;DHT22;18963;51.504;5.316;2024-03-08T10:28:44;9.30;99.90
32522;DHT22;18963;51.504;5.316;2024-03-08T10:31:10;9.30;99.90
32522;DHT22;18963;51.504;5.316;2024-03-08T10:33:36;9.40;99.90
32522;DHT22;18963;51.504;5.316;2024-03-08T10:36:03;9.40;99.90
32522;DHT22;18963;51.504;5.316;2024-03-08T10:38:30;9.50;99.90
32522;DHT22;18963;51.504;5.316;2024-03-08T10:40:58;9.50;99.90
32522;DHT22;18963;51.504;5.316;2024-03-08T10:43:24;9.60;99.90
32522;DHT22;18963;51.504;5.316;2024-03-08T10:45:53;9.80;99.90
32522;DHT22;18963;51.504;5.316;2024-03-08T10:48:29;9.90;99.90
32522;DHT22;18963;51.504;5.316;2024-03-08T10:51:04;9.90;99.50
32522;DHT22;18963;51.504;5.316;2024-03-08T10:53:30;9.90;99.90
32522;DHT22;18963;51.504;5.316;2024-03-08T10:55:56;10.10;99.80
32522;DHT22;18963;51.504;5.316;2024-03-08T10:58:22;10.10;99.50
32522;DHT22;18963;51.504;5.316;2024-03-08T11:00:48;10.10;99.10
32522;DHT22;18963;51.504;5.316;2024-03-08T11:06:16;10.00;99.40
32522;DHT22;18963;51.504;5.316;2024-03-08T11:08:43;10.10;99.80
32522;DHT22;18963;51.504;5.316;2024-03-08T11:11:28;10.30;99.60
32522;DHT22;18963;51.504;5.316;2024-03-08T11:13:56;10.50;99.60
32522;DHT22;18963;51.504;5.316;2024-03-08T11:18:53;10.80;97.70
32522;DHT22;18963;51.504;5.316;2024-03-08T11:21:18;10.90;97.20
32522;DHT22;18963;51.504;5.316;2024-03-08T11:23:58;10.80;96.40
32522;DHT22;18963;51.504;5.316;2024-03-08T11:26:24;10.90;96.60
32522;DHT22;18963;51.504;5.316;2024-03-08T11:28:49;11.20;95.90
32522;DHT22;18963;51.504;5.316;2024-03-08T11:31:22;11.20;92.70
32522;DHT22;18963;51.504;5.316;2024-03-08T11:33:48;11.20;93.50
32522;DHT22;18963;51.504;5.316;2024-03-08T11:36:21;11.30;92.80
32522;DHT22;18963;51.504;5.316;2024-03-08T11:38:47;11.50;91.00
32522;DHT22;18963;51.504;5.316;2024-03-08T11:41:22;11.60;90.30
32522;DHT22;18963;51.504;5.316;2024-03-08T11:43:49;11.80;91.20
32522;DHT22;18963;51.504;5.316;2024-03-08T11:46:15;11.80;87.60
32522;DHT22;18963;51.504;5.316;2024-03-08T11:48:42;12.10;88.30
32522;DHT22;18963;51.504;5.316;2024-03-08T11:51:11;12.40;86.10
32522;DHT22;18963;51.504;5.316;2024-03-08T11:53:37;12.40;85.90
32522;DHT22;18963;51.504;5.316;2024-03-08T11:56:09;12.60;86.40
32522;DHT22;18963;51.504;5.316;2024-03-08T11:58:36;12.90;84.90
32522;DHT22;18963;51.504;5.316;2024-03-08T12:01:03;13.40;83.90
32522;DHT22;18963;51.504;5.316;2024-03-08T12:03:29;13.60;78.90
32522;DHT22;18963;51.504;5.316;2024-03-08T12:05:59;13.70;77.90
32522;DHT22;18963;51.504;5.316;2024-03-08T12:08:25;14.00;76.40
32522;DHT22;18963;51.504;5.316;2024-03-08T12:10:53;14.00;77.10
32522;DHT22;18963;51.504;5.316;2024-03-08T12:13:27;14.00;75.70
32522;DHT22;18963;51.504;5.316;2024-03-08T12:15:57;13.60;73.90
32522;DHT22;18963;51.504;5.316;2024-03-08T12:18:24;13.10;74.90
32522;DHT22;18963;51.504;5.316;2024-03-08T12:20:49;12.90;77.20
32522;DHT22;18963;51.504;5.316;2024-03-08T12:23:15;12.80;78.70
32522;DHT22;18963;51.504;5.316;2024-03-08T12:25:41;12.50;77.90
32522;DHT22;18963;51.504;5.316;2024-03-08T12:28:08;12.40;78.40
32522;DHT22;18963;51.504;5.316;2024-03-08T12:30:47;12.30;80.40
32522;DHT22;18963;51.504;5.316;2024-03-08T12:33:13;12.20;81.10
32522;DHT22;18963;51.504;5.316;2024-03-08T12:35:39;12.00;82.30
32522;DHT22;18963;51.504;5.316;2024-03-08T12:38:04;11.90;83.60
32522;DHT22;18963;51.504;5.316;2024-03-08T12:40:32;11.80;83.10
32522;DHT22;18963;51.504;5.316;2024-03-08T12:43:00;11.60;83.60
32522;DHT22;18963;51.504;5.316;2024-03-08T12:45:25;11.50;82.70
32522;DHT22;18963;51.504;5.316;2024-03-08T12:47:51;11.30;82.80
32522;DHT22;18963;51.504;5.316;2024-03-08T12:50:17;11.20;85.10
32522;DHT22;18963;51.504;5.316;2024-03-08T12:52:43;11.20;87.10
32522;DHT22;18963;51.504;5.316;2024-03-08T12:55:09;11.20;85.70
32522;DHT22;18963;51.504;5.316;2024-03-08T12:57:35;11.00;84.40
32522;DHT22;18963;51.504;5.316;2024-03-08T13:00:03;10.90;84.70
32522;DHT22;18963;51.504;5.316;2024-03-08T13:02:29;10.80;86.50
32522;DHT22;18963;51.504;5.316;2024-03-08T13:04:57;10.80;86.50
32522;DHT22;18963;51.504;5.316;2024-03-08T13:07:23;10.80;87.10
32522;DHT22;18963;51.504;5.316;2024-03-08T13:09:53;10.80;86.00
32522;DHT22;18963;51.504;5.316;2024-03-08T13:12:20;10.70;87.20
32522;DHT22;18963;51.504;5.316;2024-03-08T13:14:46;10.70;88.20
32522;DHT22;18963;51.504;5.316;2024-03-08T13:17:14;10.60;87.00
32522;DHT22;18963;51.504;5.316;2024-03-08T13:19:40;10.50;87.90
32522;DHT22;18963;51.504;5.316;2024-03-08T13:22:06;10.40;90.40
32522;DHT22;18963;51.504;5.316;2024-03-08T13:24:32;10.50;90.20
32522;DHT22;18963;51.504;5.316;2024-03-08T13:26:59;10.40;89.60
32522;DHT22;18963;51.504;5.316;2024-03-08T13:29:25;10.30;90.00
32522;DHT22;18963;51.504;5.316;2024-03-08T13:31:50;10.40;91.10
32522;DHT22;18963;51.504;5.316;2024-03-08T13:34:17;10.40;90.50
32522;DHT22;18963;51.504;5.316;2024-03-08T13:36:43;10.40;90.30
32522;DHT22;18963;51.504;5.316;2024-03-08T13:39:09;10.30;90.30
32522;DHT22;18963;51.504;5.316;2024-03-08T13:41:40;10.30;91.00
32522;DHT22;18963;51.504;5.316;2024-03-08T13:44:07;10.30;91.20
32522;DHT22;18963;51.504;5.316;2024-03-08T13:46:32;10.30;90.30
32522;DHT22;18963;51.504;5.316;2024-03-08T13:49:02;10.30;90.90
32522;DHT22;18963;51.504;5.316;2024-03-08T13:51:30;10.30;91.50
32522;DHT22;18963;51.504;5.316;2024-03-08T13:53:57;10.40;91.60
32522;DHT22;18963;51.504;5.316;2024-03-08T13:56:23;10.40;91.20
32522;DHT22;18963;51.504;5.316;2024-03-08T13:58:48;10.40;91.40
32522;DHT22;18963;51.504;5.316;2024-03-08T14:01:14;10.30;92.30
32522;DHT22;18963;51.504;5.316;2024-03-08T14:03:39;10.40;91.70
32522;DHT22;18963;51.504;5.316;2024-03-08T14:06:08;10.40;91.00
32522;DHT22;18963;51.504;5.316;2024-03-08T14:08:35;10.40;91.20
32522;DHT22;18963;51.504;5.316;2024-03-08T14:11:03;10.50;91.70
32522;DHT22;18963;51.504;5.316;2024-03-08T14:13:40;10.50;92.10
32522;DHT22;18963;51.504;5.316;2024-03-08T14:16:06;10.50;90.70
32522;DHT22;18963;51.504;5.316;2024-03-08T14:18:34;10.60;90.10
32522;DHT22;18963;51.504;5.316;2024-03-08T14:20:59;10.60;91.00
32522;DHT22;18963;51.504;5.316;2024-03-08T14:23:25;10.60;90.40
32522;DHT22;18963;51.504;5.316;2024-03-08T14:25:52;10.50;90.50
32522;DHT22;18963;51.504;5.316;2024-03-08T14:28:17;10.50;88.90
32522;DHT22;18963;51.504;5.316;2024-03-08T14:30:44;10.60;90.30
32522;DHT22;18963;51.504;5.316;2024-03-08T14:33:10;10.50;90.70
32522;DHT22;18963;51.504;5.316;2024-03-08T14:35:35;10.60;90.10
32522;DHT22;18963;51.504;5.316;2024-03-08T14:38:01;10.60;89.10
32522;DHT22;18963;51.504;5.316;2024-03-08T14:40:27;10.50;89.70
32522;DHT22;18963;51.504;5.316;2024-03-08T14:42:53;10.60;88.80
32522;DHT22;18963;51.504;5.316;2024-03-08T14:45:19;10.60;88.80
32522;DHT22;18963;51.504;5.316;2024-03-08T14:47:48;10.60;90.10
32522;DHT22;18963;51.504;5.316;2024-03-08T14:50:15;10.60;90.50
32522;DHT22;18963;51.504;5.316;2024-03-08T14:52:42;10.60;89.90
32522;DHT22;18963;51.504;5.316;2024-03-08T14:55:08;10.60;90.10
32522;DHT22;18963;51.504;5.316;2024-03-08T14:57:35;10.70;90.90
32522;DHT22;18963;51.504;5.316;2024-03-08T15:00:00;10.70;88.90
32522;DHT22;18963;51.504;5.316;2024-03-08T15:02:31;10.70;90.10
32522;DHT22;18963;51.504;5.316;2024-03-08T15:04:57;10.70;88.00
32522;DHT22;18963;51.504;5.316;2024-03-08T15:07:26;10.70;88.50
32522;DHT22;18963;51.504;5.316;2024-03-08T15:09:51;10.70;88.80
32522;DHT22;18963;51.504;5.316;2024-03-08T15:12:17;10.70;88.40
32522;DHT22;18963;51.504;5.316;2024-03-08T15:14:42;10.70;86.90
32522;DHT22;18963;51.504;5.316;2024-03-08T15:17:09;10.70;88.20
32522;DHT22;18963;51.504;5.316;2024-03-08T15:19:42;10.70;88.20
32522;DHT22;18963;51.504;5.316;2024-03-08T15:22:08;10.80;88.00
32522;DHT22;18963;51.504;5.316;2024-03-08T15:24:35;10.70;87.30
32522;DHT22;18963;51.504;5.316;2024-03-08T15:27:00;10.80;86.50
32522;DHT22;18963;51.504;5.316;2024-03-08T15:29:27;10.80;84.50
32522;DHT22;18963;51.504;5.316;2024-03-08T15:31:52;10.80;84.60
32522;DHT22;18963;51.504;5.316;2024-03-08T15:34:19;10.70;85.90
32522;DHT22;18963;51.504;5.316;2024-03-08T15:36:49;10.70;86.30
32522;DHT22;18963;51.504;5.316;2024-03-08T15:39:16;10.70;85.40
32522;DHT22;18963;51.504;5.316;2024-03-08T15:41:42;10.70;85.20
32522;DHT22;18963;51.504;5.316;2024-03-08T15:44:09;10.70;86.80